createdAt,value
2023-04-09T00:01:47.195Z,12.76
2023-04-09T00:04:22.433Z,12.73
2023-04-09T00:06:55.220Z,12.67
2023-04-09T00:09:28.125Z,12.66
2023-04-09T00:12:00.672Z,12.61
2023-04-09T00:14:33.399Z,12.68
2023-04-09T00:17:06.070Z,12.65
2023-04-09T00:19:40.280Z,12.57
2023-04-09T00:22:13.193Z,12.59
2023-04-09T00:24:53.308Z,12.55
2023-04-09T00:27:26.517Z,12.49
2023-04-09T00:29:59.297Z,12.49
2023-04-09T00:32:32.144Z,12.46
2023-04-09T00:35:06.868Z,12.51
2023-04-09T00:37:40.123Z,12.44
2023-04-09T00:40:13.181Z,12.45
2023-04-09T00:42:46.094Z,12.42
2023-04-09T00:45:18.806Z,12.40
2023-04-09T00:47:51.902Z,12.39
2023-04-09T00:50:26.498Z,12.39
2023-04-09T00:52:59.333Z,12.37
2023-04-09T00:55:32.555Z,12.38
2023-04-09T00:58:05.530Z,12.33
2023-04-09T01:00:38.767Z,12.31
2023-04-09T01:03:11.716Z,12.27
2023-04-09T01:05:54.562Z,12.22
2023-04-09T01:08:34.570Z,12.22
2023-04-09T01:11:16.991Z,12.19
2023-04-09T01:13:58.722Z,12.12
2023-04-09T01:16:35.271Z,12.15
2023-04-09T01:19:14.844Z,12.15
2023-04-09T01:21:49.575Z,12.13
2023-04-09T01:24:42.621Z,12.04
2023-04-09T01:27:17.344Z,12.07
2023-04-09T01:30:03.180Z,12.00
2023-04-09T01:32:39.952Z,11.99
2023-04-09T01:35:13.814Z,12.01
2023-04-09T01:37:47.374Z,11.94
2023-04-09T01:40:20.452Z,11.91
2023-04-09T01:42:54.787Z,11.92
2023-04-09T01:45:28.981Z,11.89
2023-04-09T01:48:03.567Z,11.88
2023-04-09T01:50:36.826Z,11.87
2023-04-09T01:53:09.767Z,11.83
2023-04-09T01:55:42.948Z,11.79
2023-04-09T01:58:15.781Z,11.79
2023-04-09T02:00:50.602Z,11.72
2023-04-09T02:03:26.265Z,11.73
2023-04-09T02:06:05.306Z,11.74
2023-04-09T02:08:38.729Z,11.69
2023-04-09T02:11:12.619Z,11.68
2023-04-09T02:13:46.118Z,11.66
2023-04-09T02:16:21.928Z,11.70
2023-04-09T02:18:57.457Z,11.61
2023-04-09T02:21:31.746Z,11.58
2023-04-09T02:24:04.735Z,11.57
2023-04-09T02:26:37.349Z,11.56
2023-04-09T02:29:10.278Z,11.50
2023-04-09T02:31:45.175Z,11.52
2023-04-09T02:34:17.975Z,11.48
2023-04-09T02:36:50.864Z,11.44
2023-04-09T02:39:23.769Z,11.42
2023-04-09T02:41:57.814Z,11.41
2023-04-09T02:44:32.795Z,11.39
2023-04-09T02:47:07.490Z,11.40
2023-04-09T02:49:41.299Z,11.40
2023-04-09T02:52:13.906Z,11.37
2023-04-09T02:54:46.636Z,11.30
2023-04-09T02:57:19.660Z,11.30
2023-04-09T02:59:52.189Z,11.31
2023-04-09T03:02:26.551Z,11.29
2023-04-09T03:04:59.474Z,11.27
2023-04-09T03:07:32.254Z,11.26
2023-04-09T03:10:05.443Z,11.22
2023-04-09T03:12:38.128Z,11.23
2023-04-09T03:15:11.458Z,11.23
2023-04-09T03:17:45.928Z,11.18
2023-04-09T03:20:18.777Z,11.20
2023-04-09T03:22:51.378Z,11.18
2023-04-09T03:25:32.306Z,11.12
2023-04-09T03:28:09.183Z,11.12
2023-04-09T03:30:47.287Z,11.12
2023-04-09T03:33:22.274Z,11.08
2023-04-09T03:35:59.084Z,11.08
2023-04-09T03:39:01.594Z,11.05
2023-04-09T03:41:43.294Z,11.06
2023-04-09T03:44:20.292Z,11.01
2023-04-09T03:47:06.873Z,11.03
2023-04-09T03:49:42.380Z,11.02
2023-04-09T03:52:29.832Z,10.99
2023-04-09T03:55:11.350Z,11.00
2023-04-09T03:57:44.409Z,10.95
2023-04-09T04:00:22.594Z,10.95
2023-04-09T04:03:18.870Z,10.97
2023-04-09T04:06:12.917Z,11.02
2023-04-09T04:09:11.854Z,11.06
2023-04-09T04:11:50.012Z,11.03
2023-04-09T04:14:24.390Z,11.04
2023-04-09T04:17:03.818Z,11.04
2023-04-09T04:19:37.647Z,10.98
2023-04-09T04:22:11.950Z,11.04
2023-04-09T04:24:48.218Z,10.99
2023-04-09T04:27:25.573Z,11.01
2023-04-09T04:30:02.117Z,11.03
2023-04-09T04:33:01.422Z,11.03
2023-04-09T04:35:41.240Z,11.02
2023-04-09T04:38:21.811Z,11.06
2023-04-09T04:40:56.045Z,11.10
2023-04-09T04:43:29.866Z,11.06
2023-04-09T04:46:06.229Z,11.06
2023-04-09T04:48:39.577Z,11.05
2023-04-09T04:51:12.671Z,11.12
2023-04-09T04:53:52.642Z,11.09
2023-04-09T04:56:25.436Z,11.18
2023-04-09T04:59:08.140Z,11.19
2023-04-09T05:01:53.142Z,11.19
2023-04-09T05:04:26.036Z,11.16
2023-04-09T05:06:59.784Z,11.14
2023-04-09T05:09:34.121Z,11.18
2023-04-09T05:12:11.510Z,11.17
2023-04-09T05:14:44.809Z,11.22
2023-04-09T05:17:17.545Z,11.21
2023-04-09T05:19:52.566Z,11.20
2023-04-09T05:22:29.588Z,11.25
2023-04-09T05:25:03.651Z,11.22
2023-04-09T05:27:37.281Z,11.25
2023-04-09T05:30:11.428Z,11.29
2023-04-09T05:32:45.453Z,11.25
2023-04-09T05:35:18.502Z,11.22
2023-04-09T05:37:51.652Z,11.25
2023-04-09T05:40:25.919Z,11.26
2023-04-09T05:42:59.782Z,11.30
2023-04-09T05:45:45.977Z,11.29
2023-04-09T05:48:19.735Z,11.31
2023-04-09T05:50:55.358Z,11.28
2023-04-09T05:53:32.765Z,11.31
2023-04-09T05:56:14.335Z,11.30
2023-04-09T05:58:53.557Z,11.40
2023-04-09T06:01:26.151Z,11.39
2023-04-09T06:03:59.353Z,11.38
2023-04-09T06:06:36.017Z,11.39
2023-04-09T06:09:08.728Z,11.38
2023-04-09T06:11:44.990Z,11.39
2023-04-09T06:14:18.469Z,11.43
2023-04-09T06:16:51.264Z,11.39
2023-04-09T06:19:24.029Z,11.43
2023-04-09T06:21:56.720Z,11.44
2023-04-09T06:24:29.765Z,11.50
2023-04-09T06:27:04.113Z,11.49
2023-04-09T06:29:37.299Z,11.50
2023-04-09T06:32:10.349Z,11.52
2023-04-09T06:34:43.112Z,11.53
2023-04-09T06:37:15.827Z,11.60
2023-04-09T06:40:00.624Z,11.54
2023-04-09T06:42:35.675Z,11.55
2023-04-09T06:45:20.648Z,11.57
2023-04-09T06:47:53.385Z,11.56
2023-04-09T06:50:26.652Z,11.59
2023-04-09T06:52:59.510Z,11.59
2023-04-09T06:55:32.254Z,11.63
2023-04-09T06:58:06.762Z,11.61
2023-04-09T07:00:39.746Z,11.63
2023-04-09T07:03:18.551Z,11.68
2023-04-09T07:05:52.044Z,11.67
2023-04-09T07:08:25.119Z,11.65
2023-04-09T07:10:57.997Z,11.72
2023-04-09T07:13:33.151Z,11.66
2023-04-09T07:16:06.794Z,11.68
2023-04-09T07:18:40.296Z,11.72
2023-04-09T07:21:13.144Z,11.77
2023-04-09T07:23:46.755Z,11.80
2023-04-09T07:26:19.688Z,11.81
2023-04-09T07:28:53.624Z,11.89
2023-04-09T07:31:27.326Z,11.87
2023-04-09T07:34:00.231Z,11.85
2023-04-09T07:36:32.969Z,11.87
2023-04-09T07:39:05.760Z,11.91
2023-04-09T07:41:38.662Z,11.90
2023-04-09T07:44:13.759Z,11.96
2023-04-09T07:46:47.224Z,11.86
2023-04-09T07:49:20.070Z,11.94
2023-04-09T07:51:53.163Z,12.00
2023-04-09T07:54:26.123Z,12.07
2023-04-09T07:56:59.747Z,12.03
2023-04-09T07:59:34.367Z,12.08
2023-04-09T08:02:07.384Z,12.08
2023-04-09T08:04:40.514Z,12.09
2023-04-09T08:07:13.586Z,12.13
2023-04-09T08:09:46.509Z,12.20
2023-04-09T08:12:19.437Z,12.20
2023-04-09T08:14:53.670Z,12.17
2023-04-09T08:17:27.449Z,12.21
2023-04-09T08:20:00.771Z,12.25
2023-04-09T08:22:34.599Z,12.24
2023-04-09T08:25:08.522Z,12.27
2023-04-09T08:27:41.382Z,12.29
2023-04-09T08:30:16.971Z,12.28
2023-04-09T08:32:51.610Z,12.30
2023-04-09T08:35:24.232Z,12.37
2023-04-09T08:37:57.653Z,12.41
2023-04-09T08:40:35.554Z,12.47
2023-04-09T08:43:09.482Z,12.43
2023-04-09T08:45:44.226Z,12.48
2023-04-09T08:48:19.256Z,12.47
2023-04-09T08:50:52.673Z,12.51
2023-04-09T08:53:27.474Z,12.48
2023-04-09T08:56:00.639Z,12.56
2023-04-09T08:58:34.456Z,12.60
2023-04-09T09:01:19.681Z,12.64
2023-04-09T09:03:58.027Z,12.71
2023-04-09T09:06:33.423Z,12.71
2023-04-09T09:09:08.496Z,12.78
2023-04-09T09:11:43.184Z,12.81
2023-04-09T09:14:18.054Z,12.84
2023-04-09T09:17:08.458Z,12.80
2023-04-09T09:19:41.473Z,12.86
2023-04-09T09:22:15.123Z,12.88
2023-04-09T09:24:50.368Z,12.98
2023-04-09T09:27:37.073Z,13.03
2023-04-09T09:30:12.015Z,13.05
2023-04-09T09:32:46.518Z,13.10
2023-04-09T09:35:19.533Z,13.13
2023-04-09T09:38:04.076Z,13.15
2023-04-09T09:40:36.987Z,13.14
2023-04-09T09:43:12.288Z,13.22
2023-04-09T09:45:50.251Z,13.21
2023-04-09T09:48:25.766Z,12.74
2023-04-09T09:51:01.607Z,12.65
2023-04-09T09:53:40.813Z,12.53
2023-04-09T09:56:20.245Z,12.65
2023-04-09T09:59:03.748Z,12.76
2023-04-09T10:01:38.551Z,12.56
2023-04-09T10:04:18.760Z,12.88
2023-04-09T10:06:56.551Z,12.34
2023-04-09T10:09:29.736Z,12.52
2023-04-09T10:12:05.013Z,12.71
2023-04-09T10:14:41.238Z,12.73
2023-04-09T10:17:16.244Z,12.69
2023-04-09T10:20:00.501Z,12.71
2023-04-09T10:22:36.367Z,12.93
2023-04-09T10:25:10.004Z,13.17
2023-04-09T10:27:46.165Z,13.29
2023-04-09T10:30:34.559Z,13.18
2023-04-09T10:33:11.765Z,13.25
2023-04-09T10:35:48.675Z,13.20
2023-04-09T10:38:35.503Z,13.41
2023-04-09T10:41:15.158Z,13.38
2023-04-09T10:43:48.897Z,13.72
2023-04-09T10:46:29.479Z,13.69
2023-04-09T10:49:18.027Z,13.85
2023-04-09T10:52:03.305Z,13.82
2023-04-09T10:54:45.798Z,13.95
2023-04-09T10:57:22.738Z,13.71
2023-04-09T10:59:56.488Z,13.93
2023-04-09T11:03:03.104Z,14.42
2023-04-09T11:05:40.482Z,13.76
2023-04-09T11:08:15.726Z,13.97
2023-04-09T11:10:51.219Z,14.17
2023-04-09T11:13:25.779Z,13.92
2023-04-09T11:16:00.201Z,13.93
2023-04-09T11:18:34.811Z,14.37
2023-04-09T11:21:07.790Z,14.15
2023-04-09T11:23:43.041Z,14.50
2023-04-09T11:26:16.638Z,14.70
2023-04-09T11:28:49.460Z,14.85
2023-04-09T11:31:28.816Z,14.72
2023-04-09T11:34:01.701Z,15.44
2023-04-09T11:36:36.714Z,15.74
2023-04-09T11:39:10.949Z,14.89
2023-04-09T11:41:44.735Z,15.20
2023-04-09T11:44:17.540Z,15.50
2023-04-09T11:46:51.298Z,14.97
2023-04-09T11:49:25.279Z,14.98
2023-04-09T11:52:01.089Z,15.15
2023-04-09T11:54:35.814Z,15.02
2023-04-09T11:57:08.791Z,15.56
2023-04-09T11:59:41.611Z,16.19
2023-04-09T12:02:19.095Z,16.09
2023-04-09T12:04:52.819Z,16.47
2023-04-09T12:07:33.412Z,17.07
2023-04-09T12:10:11.540Z,16.25
2023-04-09T12:12:46.199Z,16.28
2023-04-09T12:15:23.151Z,16.53
2023-04-09T12:17:57.079Z,16.67
2023-04-09T12:20:35.771Z,17.03
2023-04-09T12:23:10.013Z,16.66
2023-04-09T12:25:45.503Z,17.40
2023-04-09T12:28:18.982Z,18.14
2023-04-09T12:30:52.607Z,17.60
2023-04-09T12:33:25.365Z,17.34
2023-04-09T12:35:58.635Z,17.44
2023-04-09T12:38:31.479Z,17.10
2023-04-09T12:41:05.850Z,17.84
2023-04-09T12:43:39.230Z,18.74
2023-04-09T12:46:13.027Z,19.06
2023-04-09T12:48:45.918Z,19.23
2023-04-09T12:51:18.603Z,19.21
2023-04-09T12:53:51.639Z,19.25
2023-04-09T12:56:26.691Z,19.34
2023-04-09T12:59:00.739Z,19.38
2023-04-09T13:01:33.807Z,19.40
2023-04-09T13:04:06.783Z,19.52
2023-04-09T13:06:39.467Z,19.59
2023-04-09T13:09:12.273Z,19.60
2023-04-09T13:11:46.449Z,19.64
2023-04-09T13:14:19.586Z,19.52
2023-04-09T13:16:54.145Z,19.50
2023-04-09T13:19:28.272Z,19.55
2023-04-09T13:22:10.089Z,19.59
2023-04-09T13:24:45.897Z,19.75
2023-04-09T13:27:20.746Z,19.67
2023-04-09T13:29:53.562Z,19.79
2023-04-09T13:32:26.682Z,19.71
2023-04-09T13:34:59.587Z,19.67
2023-04-09T13:37:32.147Z,19.61
2023-04-09T13:40:05.132Z,19.63
2023-04-09T13:42:39.350Z,19.73
2023-04-09T13:45:12.551Z,19.73
2023-04-09T13:47:45.329Z,19.91
2023-04-09T13:50:18.384Z,19.94
2023-04-09T13:52:50.998Z,20.04
2023-04-09T13:55:23.851Z,20.10
2023-04-09T13:57:57.934Z,20.26
2023-04-09T14:00:31.726Z,20.42
2023-04-09T14:03:05.052Z,20.40
2023-04-09T14:05:43.769Z,20.39
2023-04-09T14:08:18.461Z,20.46
2023-04-09T14:10:53.143Z,20.68
2023-04-09T14:13:27.324Z,20.66
2023-04-09T14:16:00.654Z,20.68
2023-04-09T14:18:35.771Z,20.65
2023-04-09T14:21:10.314Z,20.67
2023-04-09T14:23:43.401Z,20.74
2023-04-09T14:26:16.567Z,20.66
2023-04-09T14:28:50.874Z,20.63
2023-04-09T14:31:27.037Z,20.65
2023-04-09T14:33:59.919Z,20.76
2023-04-09T14:36:33.017Z,20.78
2023-04-09T14:39:05.739Z,20.70
2023-04-09T14:41:38.470Z,20.74
2023-04-09T14:44:12.578Z,20.68
2023-04-09T14:46:45.520Z,20.78
2023-04-09T14:49:18.271Z,20.76
2023-04-09T14:51:51.051Z,20.75
2023-04-09T14:54:23.664Z,20.75
2023-04-09T14:56:57.113Z,20.76
2023-04-09T14:59:31.138Z,20.76
2023-04-09T15:02:03.959Z,20.75
2023-04-09T15:04:36.848Z,20.68
2023-04-09T15:07:09.716Z,20.63
2023-04-09T15:09:42.225Z,20.67
2023-04-09T15:12:14.864Z,20.65
2023-04-09T15:14:48.917Z,20.61
2023-04-09T15:17:21.958Z,20.63
2023-04-09T15:19:54.723Z,20.55
2023-04-09T15:22:27.556Z,20.56
2023-04-09T15:25:00.531Z,20.51
2023-04-09T15:27:33.225Z,20.51
2023-04-09T15:30:09.164Z,20.46
2023-04-09T15:32:42.071Z,20.41
2023-04-09T15:35:19.004Z,20.58
2023-04-09T15:37:51.938Z,20.55
2023-04-09T15:40:24.619Z,20.57
2023-04-09T15:43:01.507Z,20.48
2023-04-09T15:45:35.570Z,20.45
2023-04-09T15:48:08.600Z,20.50
2023-04-09T15:50:41.330Z,20.56
2023-04-09T15:53:14.957Z,20.60
2023-04-09T15:55:49.320Z,20.67
2023-04-09T15:58:22.194Z,20.69
2023-04-09T16:00:56.120Z,20.64
2023-04-09T16:03:28.834Z,20.59
2023-04-09T16:06:07.340Z,20.63
2023-04-09T16:08:40.719Z,20.53
2023-04-09T16:11:13.392Z,20.58
2023-04-09T16:13:46.146Z,20.50
2023-04-09T16:16:20.764Z,20.59
2023-04-09T16:18:57.454Z,20.48
2023-04-09T16:21:30.065Z,20.59
2023-04-09T16:24:02.937Z,20.54
2023-04-09T16:26:35.456Z,20.57
2023-04-09T16:29:08.581Z,20.60
2023-04-09T16:31:42.861Z,20.44
2023-04-09T16:34:15.807Z,20.37
2023-04-09T16:36:48.477Z,20.30
2023-04-09T16:39:21.166Z,20.32
2023-04-09T16:41:53.771Z,20.32
2023-04-09T16:44:26.912Z,20.32
2023-04-09T16:47:01.122Z,20.22
2023-04-09T16:49:33.968Z,20.20
2023-04-09T16:52:06.764Z,20.05
2023-04-09T16:54:39.796Z,20.09
2023-04-09T16:57:12.738Z,20.14
2023-04-09T16:59:45.908Z,20.11
2023-04-09T17:02:22.045Z,20.08
2023-04-09T17:04:55.213Z,20.04
2023-04-09T17:07:28.487Z,20.05
2023-04-09T17:10:01.200Z,19.89
2023-04-09T17:12:34.126Z,19.90
2023-04-09T17:15:07.267Z,19.82
2023-04-09T17:17:41.381Z,19.79
2023-04-09T17:20:14.859Z,19.63
2023-04-09T17:22:47.629Z,19.53
2023-04-09T17:25:21.445Z,19.49
2023-04-09T17:27:54.575Z,19.43
2023-04-09T17:30:27.552Z,19.35
2023-04-09T17:33:01.836Z,19.29
2023-04-09T17:35:34.791Z,19.23
2023-04-09T17:38:07.489Z,19.17
2023-04-09T17:40:40.446Z,19.03
2023-04-09T17:43:14.147Z,18.95
2023-04-09T17:45:47.005Z,18.85
2023-04-09T17:48:21.374Z,18.73
2023-04-09T17:50:54.133Z,18.61
2023-04-09T17:53:27.234Z,18.48
2023-04-09T17:56:03.081Z,18.35
2023-04-09T17:58:35.906Z,18.28
2023-04-09T18:01:09.704Z,18.17
2023-04-09T18:03:45.642Z,18.07
2023-04-09T18:06:18.836Z,18.01
2023-04-09T18:08:52.463Z,17.90
2023-04-09T18:11:25.975Z,17.77
2023-04-09T18:13:58.746Z,17.56
2023-04-09T18:16:32.102Z,17.55
2023-04-09T18:19:06.768Z,17.47
2023-04-09T18:21:39.644Z,17.38
2023-04-09T18:24:12.702Z,17.26
2023-04-09T18:26:47.688Z,17.21
2023-04-09T18:29:20.715Z,17.11
2023-04-09T18:31:55.719Z,17.00
2023-04-09T18:34:29.938Z,16.91
2023-04-09T18:37:02.830Z,16.82
2023-04-09T18:39:36.335Z,16.74
2023-04-09T18:42:09.031Z,16.66
2023-04-09T18:44:42.460Z,16.52
2023-04-09T18:47:15.445Z,16.43
2023-04-09T18:49:49.616Z,16.40
2023-04-09T18:52:22.487Z,16.33
2023-04-09T18:54:55.757Z,16.21
2023-04-09T18:57:28.907Z,16.10
2023-04-09T19:00:03.368Z,16.06
2023-04-09T19:02:36.662Z,15.98
2023-04-09T19:05:11.877Z,15.91
2023-04-09T19:07:44.608Z,15.87
2023-04-09T19:10:17.281Z,15.77
2023-04-09T19:12:53.756Z,15.76
2023-04-09T19:15:28.605Z,15.71
2023-04-09T19:18:01.464Z,15.65
2023-04-09T19:20:35.534Z,15.61
2023-04-09T19:23:08.664Z,15.50
2023-04-09T19:25:42.827Z,15.38
2023-04-09T19:28:15.854Z,15.38
2023-04-09T19:30:50.334Z,15.26
2023-04-09T19:33:24.362Z,15.24
2023-04-09T19:35:58.703Z,15.16
2023-04-09T19:38:34.499Z,15.05
2023-04-09T19:41:07.545Z,15.00
2023-04-09T19:43:41.896Z,14.98
2023-04-09T19:46:14.668Z,14.94
2023-04-09T19:48:48.508Z,14.86
2023-04-09T19:51:22.833Z,14.83
2023-04-09T19:53:55.626Z,14.88
2023-04-09T19:56:28.505Z,14.85
2023-04-09T19:59:02.280Z,14.79
2023-04-09T20:01:35.289Z,14.73
2023-04-09T20:04:09.267Z,14.70
2023-04-09T20:06:45.440Z,14.86
2023-04-09T20:09:18.925Z,14.97
2023-04-09T20:11:52.037Z,14.96
2023-04-09T20:14:24.778Z,14.99
2023-04-09T20:16:57.813Z,14.99
2023-04-09T20:19:31.004Z,14.93
2023-04-09T20:22:05.379Z,14.90
2023-04-09T20:24:38.387Z,14.89
2023-04-09T20:27:11.323Z,14.89
2023-04-09T20:29:44.219Z,14.86
2023-04-09T20:32:17.216Z,14.83
2023-04-09T20:34:50.443Z,14.84
2023-04-09T20:37:24.708Z,14.81
2023-04-09T20:39:58.878Z,14.75
2023-04-09T20:42:33.294Z,14.71
2023-04-09T20:45:07.470Z,14.66
2023-04-09T20:47:43.499Z,14.64
2023-04-09T20:50:16.569Z,14.62
2023-04-09T20:52:50.877Z,14.54
2023-04-09T20:55:23.891Z,14.57
2023-04-09T20:57:57.072Z,14.51
2023-04-09T21:00:32.104Z,14.51
2023-04-09T21:03:05.294Z,14.50
2023-04-09T21:05:38.513Z,14.48
2023-04-09T21:08:15.411Z,14.44
2023-04-09T21:10:48.192Z,14.42
2023-04-09T21:13:21.398Z,14.36
2023-04-09T21:15:58.255Z,14.36
2023-04-09T21:18:31.206Z,14.35
2023-04-09T21:21:07.647Z,14.37
2023-04-09T21:23:42.547Z,14.28
2023-04-09T21:26:15.678Z,14.24
2023-04-09T21:28:50.584Z,14.24
2023-04-09T21:31:23.753Z,14.24
2023-04-09T21:33:56.733Z,14.25
2023-04-09T21:36:48.188Z,14.20
2023-04-09T21:39:22.917Z,14.15
2023-04-09T21:41:55.890Z,14.14
2023-04-09T21:44:28.528Z,14.14
2023-04-09T21:47:02.017Z,14.06
2023-04-09T21:49:40.735Z,14.04
2023-04-09T21:52:15.638Z,14.01
2023-04-09T21:54:54.435Z,14.03
2023-04-09T21:57:27.353Z,14.05
2023-04-09T22:00:00.305Z,14.03
2023-04-09T22:02:34.184Z,14.02
2023-04-09T22:05:10.656Z,13.96
2023-04-09T22:07:44.608Z,13.94
2023-04-09T22:10:19.348Z,13.96
2023-04-09T22:12:52.190Z,13.88
2023-04-09T22:15:25.041Z,13.79
2023-04-09T22:17:58.674Z,13.78
2023-04-09T22:20:34.697Z,13.80
2023-04-09T22:23:08.687Z,13.82
2023-04-09T22:25:43.007Z,13.78
2023-04-09T22:28:15.809Z,13.74
2023-04-09T22:30:48.519Z,13.67
2023-04-09T22:33:21.536Z,13.77
2023-04-09T22:35:54.407Z,13.76
2023-04-09T22:38:27.371Z,13.72
2023-04-09T22:41:01.373Z,13.61
2023-04-09T22:43:34.052Z,13.61
2023-04-09T22:46:07.208Z,13.56
2023-04-09T22:48:44.521Z,13.59
2023-04-09T22:51:17.897Z,13.51
2023-04-09T22:53:53.401Z,13.54
2023-04-09T22:56:27.662Z,13.51
2023-04-09T22:59:00.897Z,13.53
2023-04-09T23:01:34.085Z,13.47
2023-04-09T23:04:08.617Z,13.46
2023-04-09T23:06:41.648Z,13.44
2023-04-09T23:09:14.482Z,13.46
2023-04-09T23:11:48.611Z,13.45
2023-04-09T23:14:21.478Z,13.41
2023-04-09T23:16:54.183Z,13.37
2023-04-09T23:19:27.106Z,13.39
2023-04-09T23:21:59.869Z,13.39
2023-04-09T23:24:32.783Z,13.39
2023-04-09T23:27:09.766Z,13.39
2023-04-09T23:29:42.929Z,13.37
2023-04-09T23:32:15.766Z,13.37
2023-04-09T23:34:48.572Z,13.33
2023-04-09T23:37:24.668Z,13.37
2023-04-09T23:40:00.225Z,13.29
2023-04-09T23:42:34.552Z,13.31
2023-04-09T23:45:08.431Z,13.32
2023-04-09T23:47:42.337Z,13.33
2023-04-09T23:50:15.489Z,13.32
2023-04-09T23:52:50.060Z,13.30
2023-04-09T23:55:23.006Z,13.30
2023-04-09T23:57:57.574Z,13.29
